createdAt,value
2017-10-31T00:00:18.861Z,6.88
2017-10-31T00:01:19.472Z,6.82
2017-10-31T00:02:20.077Z,6.82
2017-10-31T00:03:20.685Z,6.89
2017-10-31T00:04:21.278Z,6.91
2017-10-31T00:05:21.876Z,6.99
2017-10-31T00:06:22.477Z,6.99
2017-10-31T00:07:23.081Z,6.97
2017-10-31T00:08:23.685Z,6.99
2017-10-31T00:09:24.297Z,6.97
2017-10-31T00:10:24.916Z,7.03
2017-10-31T00:11:25.498Z,7.00
2017-10-31T00:12:26.098Z,6.99
2017-10-31T00:13:26.705Z,7.02
2017-10-31T00:14:27.300Z,7.00
2017-10-31T00:15:27.901Z,7.04
2017-10-31T00:16:28.505Z,6.96
2017-10-31T00:17:29.108Z,7.04
2017-10-31T00:18:29.712Z,7.02
2017-10-31T00:19:30.316Z,6.97
2017-10-31T00:20:30.919Z,7.02
2017-10-31T00:21:31.526Z,7.00
2017-10-31T00:22:32.133Z,7.03
2017-10-31T00:23:32.730Z,7.07
2017-10-31T00:24:33.330Z,7.09
2017-10-31T00:25:33.931Z,7.02
2017-10-31T00:26:34.535Z,7.00
2017-10-31T00:27:35.135Z,7.02
2017-10-31T00:28:35.747Z,7.02
2017-10-31T00:29:36.359Z,7.00
2017-10-31T00:30:36.964Z,7.03
2017-10-31T00:31:37.573Z,7.04
2017-10-31T00:32:38.174Z,6.97
2017-10-31T00:33:38.774Z,7.02
2017-10-31T00:34:39.380Z,7.07
2017-10-31T00:35:39.970Z,7.06
2017-10-31T00:36:40.575Z,7.12
2017-10-31T00:37:41.167Z,7.10
2017-10-31T00:38:41.778Z,7.18
2017-10-31T00:39:42.388Z,7.21
2017-10-31T00:40:42.991Z,7.10
2017-10-31T00:41:43.597Z,7.17
2017-10-31T00:42:44.200Z,7.17
2017-10-31T00:43:44.801Z,7.12
2017-10-31T00:44:45.401Z,7.18
2017-10-31T00:45:45.995Z,7.15
2017-10-31T00:46:46.599Z,7.09
2017-10-31T00:47:47.198Z,7.17
2017-10-31T00:48:47.821Z,7.25
2017-10-31T00:49:48.411Z,7.15
2017-10-31T00:50:49.018Z,7.19
2017-10-31T00:51:49.616Z,7.24
2017-10-31T00:52:50.219Z,7.27
2017-10-31T00:53:50.829Z,7.28
2017-10-31T00:54:51.436Z,7.21
2017-10-31T00:55:52.035Z,7.25
2017-10-31T00:56:52.640Z,7.32
2017-10-31T00:57:53.248Z,7.21
2017-10-31T00:58:53.850Z,7.21
2017-10-31T00:59:54.465Z,7.24
2017-10-31T01:00:55.064Z,7.29
2017-10-31T01:01:55.668Z,7.33
2017-10-31T01:02:56.275Z,7.33
2017-10-31T01:03:56.878Z,7.25
2017-10-31T01:04:57.467Z,7.32
2017-10-31T01:05:58.076Z,7.29
2017-10-31T01:06:58.682Z,7.28
2017-10-31T01:07:59.286Z,7.28
2017-10-31T01:08:59.886Z,7.28
2017-10-31T01:10:00.484Z,7.27
2017-10-31T01:11:01.092Z,7.36
2017-10-31T01:12:01.693Z,7.33
2017-10-31T01:13:02.279Z,7.25
2017-10-31T01:14:02.871Z,7.22
2017-10-31T01:15:03.469Z,7.36
2017-10-31T01:16:04.077Z,7.29
2017-10-31T01:17:04.674Z,7.25
2017-10-31T01:18:05.277Z,7.32
2017-10-31T01:19:05.876Z,7.22
2017-10-31T01:20:06.482Z,7.35
2017-10-31T01:21:07.080Z,7.29
2017-10-31T01:22:07.682Z,7.36
2017-10-31T01:23:08.295Z,7.36
2017-10-31T01:24:08.879Z,7.25
2017-10-31T01:25:09.485Z,7.28
2017-10-31T01:26:10.087Z,7.25
2017-10-31T01:27:10.693Z,7.24
2017-10-31T01:28:11.288Z,7.33
2017-10-31T01:29:11.896Z,7.29
2017-10-31T01:30:12.499Z,7.27
2017-10-31T01:31:13.104Z,7.24
2017-10-31T01:32:13.710Z,7.32
2017-10-31T01:33:14.318Z,7.28
2017-10-31T01:34:14.913Z,7.29
2017-10-31T01:35:15.519Z,7.28
2017-10-31T01:36:16.108Z,7.29
2017-10-31T01:37:16.699Z,7.29
2017-10-31T01:38:17.307Z,7.24
2017-10-31T01:39:17.909Z,7.29
2017-10-31T01:40:18.502Z,7.24
2017-10-31T01:41:19.106Z,7.25
2017-10-31T01:42:19.712Z,7.29
2017-10-31T01:43:20.311Z,7.27
2017-10-31T01:44:20.905Z,7.25
2017-10-31T01:45:21.505Z,7.29
2017-10-31T01:46:22.106Z,7.36
2017-10-31T01:47:22.712Z,7.33
2017-10-31T01:48:23.315Z,7.33
2017-10-31T01:49:23.914Z,7.27
2017-10-31T01:50:24.526Z,7.33
2017-10-31T01:51:25.144Z,7.32
2017-10-31T01:52:25.731Z,7.28
2017-10-31T01:53:26.343Z,7.32
2017-10-31T01:54:26.938Z,7.36
2017-10-31T01:55:27.539Z,7.32
2017-10-31T01:56:28.138Z,7.29
2017-10-31T01:57:28.744Z,7.29
2017-10-31T01:58:29.340Z,7.39
2017-10-31T01:59:29.946Z,7.28
2017-10-31T02:00:30.550Z,7.32
2017-10-31T02:01:31.154Z,7.35
2017-10-31T02:02:31.752Z,7.24
2017-10-31T02:03:32.362Z,7.28
2017-10-31T02:04:32.965Z,7.32
2017-10-31T02:05:33.569Z,7.33
2017-10-31T02:06:34.180Z,7.32
2017-10-31T02:07:34.787Z,7.25
2017-10-31T02:08:35.390Z,7.32
2017-10-31T02:09:35.981Z,7.28
2017-10-31T02:10:36.572Z,7.35
2017-10-31T02:11:37.176Z,7.32
2017-10-31T02:12:37.777Z,7.32
2017-10-31T02:13:38.378Z,7.28
2017-10-31T02:14:38.967Z,7.33
2017-10-31T02:15:39.557Z,7.36
2017-10-31T02:16:40.153Z,7.33
2017-10-31T02:17:40.758Z,7.36
2017-10-31T02:18:41.364Z,7.36
2017-10-31T02:19:41.961Z,7.24
2017-10-31T02:20:42.566Z,7.33
2017-10-31T02:21:43.168Z,7.29
2017-10-31T02:22:43.774Z,7.33
2017-10-31T02:23:44.368Z,7.33
2017-10-31T02:24:44.972Z,7.32
2017-10-31T02:25:45.599Z,7.27
2017-10-31T02:26:46.189Z,7.36
2017-10-31T02:27:46.789Z,7.36
2017-10-31T02:28:47.398Z,7.35
2017-10-31T02:29:48.001Z,7.33
2017-10-31T02:30:48.595Z,7.32
2017-10-31T02:31:49.224Z,7.39
2017-10-31T02:32:49.801Z,7.45
2017-10-31T02:33:50.399Z,7.36
2017-10-31T02:34:50.997Z,7.43
2017-10-31T02:35:51.601Z,7.36
2017-10-31T02:36:52.215Z,7.39
2017-10-31T02:37:52.805Z,7.36
2017-10-31T02:38:53.401Z,7.35
2017-10-31T02:39:54.006Z,7.37
2017-10-31T02:40:54.608Z,7.36
2017-10-31T02:41:55.215Z,7.37
2017-10-31T02:42:55.822Z,7.45
2017-10-31T02:43:56.421Z,7.37
2017-10-31T02:44:57.025Z,7.37
2017-10-31T02:45:57.626Z,7.40
2017-10-31T02:46:58.223Z,7.47
2017-10-31T02:47:58.827Z,7.42
2017-10-31T02:48:59.434Z,7.50
2017-10-31T02:50:00.025Z,7.47
2017-10-31T02:51:00.630Z,7.42
2017-10-31T02:52:01.227Z,7.42
2017-10-31T02:53:01.832Z,7.50
2017-10-31T02:54:02.433Z,7.43
2017-10-31T02:55:03.032Z,7.46
2017-10-31T02:56:03.636Z,7.46
2017-10-31T02:57:04.240Z,7.47
2017-10-31T02:58:04.840Z,7.47
2017-10-31T02:59:05.450Z,7.42
2017-10-31T03:00:06.046Z,7.46
2017-10-31T03:01:06.653Z,7.37
2017-10-31T03:02:07.255Z,7.42
2017-10-31T03:03:07.854Z,7.40
2017-10-31T03:04:08.455Z,7.39
2017-10-31T03:05:09.056Z,7.47
2017-10-31T03:06:09.656Z,7.37
2017-10-31T03:07:10.260Z,7.47
2017-10-31T03:08:10.867Z,7.40
2017-10-31T03:09:11.473Z,7.45
2017-10-31T03:10:12.081Z,7.37
2017-10-31T03:11:12.680Z,7.43
2017-10-31T03:12:13.279Z,7.40
2017-10-31T03:13:13.882Z,7.42
2017-10-31T03:14:14.475Z,7.42
2017-10-31T03:15:15.086Z,7.42
2017-10-31T03:16:15.687Z,7.43
2017-10-31T03:17:16.289Z,7.43
2017-10-31T03:18:16.888Z,7.43
2017-10-31T03:19:17.493Z,7.42
2017-10-31T03:20:18.101Z,7.46
2017-10-31T03:21:18.692Z,7.36
2017-10-31T03:22:19.285Z,7.40
2017-10-31T03:23:19.890Z,7.36
2017-10-31T03:24:20.484Z,7.39
2017-10-31T03:25:21.076Z,7.40
2017-10-31T03:26:21.687Z,7.32
2017-10-31T03:27:22.300Z,7.37
2017-10-31T03:28:22.898Z,7.36
2017-10-31T03:29:23.484Z,7.29
2017-10-31T03:30:24.089Z,7.39
2017-10-31T03:31:24.692Z,7.40
2017-10-31T03:32:25.294Z,7.28
2017-10-31T03:33:25.901Z,7.32
2017-10-31T03:34:26.496Z,7.42
2017-10-31T03:35:27.107Z,7.36
2017-10-31T03:36:27.710Z,7.29
2017-10-31T03:37:28.313Z,7.37
2017-10-31T03:38:28.914Z,7.39
2017-10-31T03:39:29.511Z,7.46
2017-10-31T03:40:30.126Z,7.33
2017-10-31T03:41:30.719Z,7.35
2017-10-31T03:42:31.322Z,7.29
2017-10-31T03:43:31.921Z,7.28
2017-10-31T03:44:32.529Z,7.35
2017-10-31T03:45:33.130Z,7.33
2017-10-31T03:46:33.736Z,7.27
2017-10-31T03:47:34.347Z,7.33
2017-10-31T03:48:34.949Z,7.32
2017-10-31T03:49:35.548Z,7.28
2017-10-31T03:50:36.158Z,7.24
2017-10-31T03:51:36.766Z,7.28
2017-10-31T03:52:37.362Z,7.28
2017-10-31T03:53:37.964Z,7.28
2017-10-31T03:54:38.558Z,7.32
2017-10-31T03:55:39.162Z,7.29
2017-10-31T03:56:39.754Z,7.29
2017-10-31T03:57:40.355Z,7.32
2017-10-31T03:58:40.960Z,7.28
2017-10-31T03:59:41.557Z,7.27
2017-10-31T04:00:42.161Z,7.35
2017-10-31T04:01:42.772Z,7.36
2017-10-31T04:02:43.394Z,7.27
2017-10-31T04:03:43.967Z,7.35
2017-10-31T04:04:44.566Z,7.39
2017-10-31T04:05:45.172Z,7.29
2017-10-31T04:06:45.769Z,7.37
2017-10-31T04:07:46.377Z,7.28
2017-10-31T04:08:46.967Z,7.37
2017-10-31T04:09:47.575Z,7.37
2017-10-31T04:10:48.173Z,7.40
2017-10-31T04:11:48.766Z,7.40
2017-10-31T04:12:49.369Z,7.35
2017-10-31T04:13:49.972Z,7.39
2017-10-31T04:14:50.571Z,7.46
2017-10-31T04:15:51.179Z,7.45
2017-10-31T04:16:51.788Z,7.37
2017-10-31T04:17:52.397Z,7.46
2017-10-31T04:18:52.994Z,7.36
2017-10-31T04:19:53.598Z,7.40
2017-10-31T04:20:54.202Z,7.45
2017-10-31T04:21:54.807Z,7.43
2017-10-31T04:22:55.399Z,7.42
2017-10-31T04:23:55.995Z,7.40
2017-10-31T04:24:56.583Z,7.37
2017-10-31T04:25:57.182Z,7.36
2017-10-31T04:26:57.791Z,7.40
2017-10-31T04:27:58.390Z,7.40
2017-10-31T04:28:58.991Z,7.37
2017-10-31T04:29:59.587Z,7.45
2017-10-31T04:31:00.177Z,7.46
2017-10-31T04:32:00.778Z,7.46
2017-10-31T04:33:01.379Z,7.51
2017-10-31T04:34:01.975Z,7.53
2017-10-31T04:35:02.573Z,7.46
2017-10-31T04:36:03.173Z,7.46
2017-10-31T04:37:03.782Z,7.40
2017-10-31T04:38:04.369Z,7.36
2017-10-31T04:39:04.968Z,7.50
2017-10-31T04:40:05.569Z,7.40
2017-10-31T04:41:06.178Z,7.50
2017-10-31T04:42:06.784Z,7.50
2017-10-31T04:43:07.380Z,7.53
2017-10-31T04:44:07.990Z,7.46
2017-10-31T04:45:08.591Z,7.45
2017-10-31T04:46:09.187Z,7.42
2017-10-31T04:47:09.796Z,7.40
2017-10-31T04:48:10.404Z,7.45
2017-10-31T04:49:11.040Z,7.43
2017-10-31T04:50:11.625Z,7.47
2017-10-31T04:51:12.219Z,7.42
2017-10-31T04:52:12.818Z,7.45
2017-10-31T04:53:13.425Z,7.42
2017-10-31T04:54:14.033Z,7.47
2017-10-31T04:55:14.632Z,7.51
2017-10-31T04:56:15.235Z,7.53
2017-10-31T04:57:15.842Z,7.55
2017-10-31T04:58:16.448Z,7.50
2017-10-31T04:59:17.037Z,7.54
2017-10-31T05:00:17.634Z,7.50
2017-10-31T05:01:18.241Z,7.50
2017-10-31T05:02:18.833Z,7.54
2017-10-31T05:03:19.433Z,7.57
2017-10-31T05:04:20.028Z,7.54
2017-10-31T05:05:20.625Z,7.51
2017-10-31T05:06:21.216Z,7.54
2017-10-31T05:07:21.810Z,7.47
2017-10-31T05:08:22.415Z,7.51
2017-10-31T05:09:23.019Z,7.51
2017-10-31T05:10:23.632Z,7.53
2017-10-31T05:11:24.220Z,7.53
2017-10-31T05:12:24.810Z,7.47
2017-10-31T05:13:25.408Z,7.50
2017-10-31T05:14:26.004Z,7.51
2017-10-31T05:15:26.620Z,7.51
2017-10-31T05:16:27.248Z,7.50
2017-10-31T05:17:27.848Z,7.51
2017-10-31T05:18:28.454Z,7.55
2017-10-31T05:19:29.059Z,7.55
2017-10-31T05:20:29.661Z,7.55
2017-10-31T05:21:30.256Z,7.47
2017-10-31T05:22:30.853Z,7.45
2017-10-31T05:23:31.451Z,7.50
2017-10-31T05:24:32.055Z,7.50
2017-10-31T05:25:32.661Z,7.50
2017-10-31T05:26:33.261Z,7.50
2017-10-31T05:27:33.857Z,7.53
2017-10-31T05:28:34.447Z,7.58
2017-10-31T05:29:35.049Z,7.51
2017-10-31T05:30:35.649Z,7.54
2017-10-31T05:31:36.254Z,7.55
2017-10-31T05:32:36.842Z,7.54
2017-10-31T05:33:37.446Z,7.55
2017-10-31T05:34:38.053Z,7.50
2017-10-31T05:35:38.651Z,7.51
2017-10-31T05:36:39.257Z,7.51
2017-10-31T05:37:39.866Z,7.55
2017-10-31T05:38:40.455Z,7.57
2017-10-31T05:39:41.063Z,7.50
2017-10-31T05:40:41.656Z,7.60
2017-10-31T05:41:42.250Z,7.51
2017-10-31T05:42:42.851Z,7.47
2017-10-31T05:43:43.456Z,7.51
2017-10-31T05:44:44.056Z,7.51
2017-10-31T05:45:44.651Z,7.54
2017-10-31T05:46:45.258Z,7.63
2017-10-31T05:47:45.869Z,7.58
2017-10-31T05:48:46.471Z,7.54
2017-10-31T05:49:47.074Z,7.51
2017-10-31T05:50:47.678Z,7.53
2017-10-31T05:51:48.291Z,7.53
2017-10-31T05:52:48.875Z,7.58
2017-10-31T05:53:49.486Z,7.46
2017-10-31T05:54:50.091Z,7.45
2017-10-31T05:55:50.696Z,7.51
2017-10-31T05:56:51.292Z,7.53
2017-10-31T05:57:51.884Z,7.47
2017-10-31T05:58:52.493Z,7.50
2017-10-31T05:59:53.102Z,7.40
2017-10-31T06:00:53.695Z,7.36
2017-10-31T06:01:54.290Z,7.39
2017-10-31T06:02:54.896Z,7.45
2017-10-31T06:03:55.500Z,7.46
2017-10-31T06:04:56.094Z,7.29
2017-10-31T06:05:56.703Z,7.33
2017-10-31T06:06:57.313Z,7.32
2017-10-31T06:07:57.919Z,7.32
2017-10-31T06:08:58.527Z,7.32
2017-10-31T06:09:59.118Z,7.29
2017-10-31T06:10:59.726Z,7.18
2017-10-31T06:12:00.323Z,7.18
2017-10-31T06:13:00.927Z,7.17
2017-10-31T06:14:01.526Z,7.12
2017-10-31T06:15:02.135Z,7.07
2017-10-31T06:16:02.749Z,7.07
2017-10-31T06:17:03.355Z,7.06
2017-10-31T06:18:03.966Z,7.04
2017-10-31T06:19:04.571Z,7.04
2017-10-31T06:20:05.167Z,7.07
2017-10-31T06:21:05.762Z,7.03
2017-10-31T06:22:06.368Z,6.97
2017-10-31T06:23:06.977Z,6.97
2017-10-31T06:24:07.570Z,7.00
2017-10-31T06:25:08.180Z,7.02
2017-10-31T06:26:08.784Z,7.07
2017-10-31T06:27:09.380Z,7.07
2017-10-31T06:28:09.994Z,7.04
2017-10-31T06:29:10.590Z,7.14
2017-10-31T06:30:11.189Z,7.07
2017-10-31T06:31:11.799Z,7.14
2017-10-31T06:32:12.403Z,7.17
2017-10-31T06:33:13.010Z,7.14
2017-10-31T06:34:13.621Z,7.14
2017-10-31T06:35:14.230Z,7.17
2017-10-31T06:36:14.839Z,7.14
2017-10-31T06:37:15.446Z,7.21
2017-10-31T06:38:16.052Z,7.14
2017-10-31T06:39:16.668Z,7.17
2017-10-31T06:40:17.274Z,7.27
2017-10-31T06:41:17.871Z,7.27
2017-10-31T06:42:18.482Z,7.33
2017-10-31T06:43:19.100Z,7.29
2017-10-31T06:44:19.754Z,7.32
2017-10-31T06:45:20.372Z,7.33
2017-10-31T06:46:20.962Z,7.28
2017-10-31T06:47:21.570Z,7.32
2017-10-31T06:48:22.175Z,7.32
2017-10-31T06:49:22.788Z,7.35
2017-10-31T06:50:23.402Z,7.35
2017-10-31T06:51:24.012Z,7.45
2017-10-31T06:52:24.611Z,7.36
2017-10-31T06:53:25.206Z,7.37
2017-10-31T06:54:25.810Z,7.45
2017-10-31T06:55:26.423Z,7.35
2017-10-31T06:56:27.033Z,7.40
2017-10-31T06:57:27.644Z,7.47
2017-10-31T06:58:28.234Z,7.47
2017-10-31T06:59:28.843Z,7.55
2017-10-31T07:00:29.456Z,7.54
2017-10-31T07:01:30.070Z,7.55
2017-10-31T07:02:30.670Z,7.57
2017-10-31T07:03:31.278Z,7.57
2017-10-31T07:04:31.888Z,7.70
2017-10-31T07:05:32.500Z,7.70
2017-10-31T07:06:33.103Z,7.74
2017-10-31T07:07:33.713Z,7.74
2017-10-31T07:08:34.323Z,7.72
2017-10-31T07:09:34.931Z,7.70
2017-10-31T07:10:35.535Z,7.79
2017-10-31T07:11:36.144Z,7.81
2017-10-31T07:12:36.756Z,7.88
2017-10-31T07:13:37.358Z,7.83
2017-10-31T07:14:37.963Z,7.89
2017-10-31T07:15:38.562Z,7.81
2017-10-31T07:16:39.165Z,7.99
2017-10-31T07:17:39.776Z,8.01
2017-10-31T07:18:40.387Z,8.04
2017-10-31T07:19:40.982Z,7.99
2017-10-31T07:20:41.586Z,8.07
2017-10-31T07:21:42.194Z,8.06
2017-10-31T07:22:42.794Z,8.10
2017-10-31T07:23:43.400Z,8.15
2017-10-31T07:24:44.005Z,8.23
2017-10-31T07:25:44.618Z,8.22
2017-10-31T07:26:45.235Z,8.31
2017-10-31T07:27:45.850Z,8.31
2017-10-31T07:28:46.474Z,8.27
2017-10-31T07:29:47.077Z,8.38
2017-10-31T07:30:47.686Z,8.35
2017-10-31T07:31:48.301Z,8.45
2017-10-31T07:32:48.893Z,8.46
2017-10-31T07:33:49.497Z,8.52
2017-10-31T07:34:50.102Z,8.59
2017-10-31T07:35:50.709Z,8.49
2017-10-31T07:36:51.320Z,8.58
2017-10-31T07:37:51.936Z,8.53
2017-10-31T07:38:52.551Z,8.58
2017-10-31T07:39:53.164Z,8.55
2017-10-31T07:40:53.778Z,8.63
2017-10-31T07:41:54.376Z,8.63
2017-10-31T07:42:54.982Z,8.68
2017-10-31T07:43:55.591Z,8.77
2017-10-31T07:44:56.197Z,8.84
2017-10-31T07:45:56.801Z,8.78
2017-10-31T07:46:57.413Z,8.95
2017-10-31T07:47:58.021Z,8.98
2017-10-31T07:48:58.634Z,8.98
2017-10-31T07:49:59.249Z,8.92
2017-10-31T07:50:59.858Z,8.98
2017-10-31T07:52:00.485Z,9.01
2017-10-31T07:53:01.085Z,9.01
2017-10-31T07:54:01.688Z,9.01
2017-10-31T07:55:02.297Z,9.12
2017-10-31T07:56:02.897Z,9.15
2017-10-31T07:57:03.511Z,9.14
2017-10-31T07:58:04.119Z,9.11
2017-10-31T07:59:04.724Z,9.10
2017-10-31T08:00:05.324Z,9.10
2017-10-31T08:01:05.941Z,9.11
2017-10-31T08:02:06.549Z,9.25
2017-10-31T08:03:07.168Z,9.15
2017-10-31T08:04:07.784Z,9.15
2017-10-31T08:05:08.393Z,9.10
2017-10-31T08:06:09.001Z,9.23
2017-10-31T08:07:09.609Z,9.28
2017-10-31T08:08:10.224Z,9.29
2017-10-31T08:09:10.837Z,9.33
2017-10-31T08:10:11.451Z,9.30
2017-10-31T08:11:12.051Z,9.30
2017-10-31T08:12:12.658Z,9.29
2017-10-31T08:13:13.258Z,9.38
2017-10-31T08:14:13.877Z,9.26
2017-10-31T08:15:14.490Z,9.40
2017-10-31T08:16:15.105Z,9.50
2017-10-31T08:17:15.715Z,9.44
2017-10-31T08:18:16.324Z,9.35
2017-10-31T08:19:16.936Z,9.44
2017-10-31T08:20:17.557Z,9.45
2017-10-31T08:21:18.175Z,9.54
2017-10-31T08:22:18.764Z,9.53
2017-10-31T08:23:19.379Z,9.65
2017-10-31T08:24:19.987Z,9.63
2017-10-31T08:25:20.595Z,9.72
2017-10-31T08:26:21.206Z,9.80
2017-10-31T08:27:21.830Z,9.94
2017-10-31T08:28:22.443Z,9.83
2017-10-31T08:29:23.059Z,9.99
2017-10-31T08:30:23.668Z,10.05
2017-10-31T08:31:24.287Z,10.04
2017-10-31T08:32:24.899Z,10.20
2017-10-31T08:33:25.513Z,10.14
2017-10-31T08:34:26.112Z,10.23
2017-10-31T08:35:26.730Z,10.29
2017-10-31T08:36:27.342Z,10.37
2017-10-31T08:37:27.957Z,10.34
2017-10-31T08:38:28.560Z,10.26
2017-10-31T08:39:29.172Z,10.34
2017-10-31T08:40:29.790Z,10.37
2017-10-31T08:41:30.404Z,10.39
2017-10-31T08:42:31.022Z,10.49
2017-10-31T08:43:31.636Z,10.49
2017-10-31T08:44:32.242Z,10.60
2017-10-31T08:45:32.845Z,10.51
2017-10-31T08:46:33.473Z,10.56
2017-10-31T08:47:34.054Z,10.64
2017-10-31T08:48:34.671Z,10.66
2017-10-31T08:49:35.280Z,10.75
2017-10-31T08:50:35.888Z,10.72
2017-10-31T08:51:36.494Z,10.83
2017-10-31T08:52:37.112Z,10.82
2017-10-31T08:53:37.724Z,10.87
2017-10-31T08:54:38.339Z,11.04
2017-10-31T08:55:38.958Z,11.09
2017-10-31T08:56:39.571Z,11.18
2017-10-31T08:57:40.188Z,11.16
2017-10-31T08:58:40.795Z,11.26
2017-10-31T08:59:41.406Z,11.37
2017-10-31T09:00:42.006Z,11.51
2017-10-31T09:01:42.617Z,11.90
2017-10-31T09:02:43.231Z,12.14
2017-10-31T09:03:43.846Z,11.96
2017-10-31T09:04:44.471Z,12.06
2017-10-31T09:05:45.086Z,12.03
2017-10-31T09:06:45.715Z,12.09
2017-10-31T09:07:46.325Z,12.28
2017-10-31T09:08:46.925Z,12.19
2017-10-31T09:09:47.547Z,12.32
2017-10-31T09:10:48.161Z,12.42
2017-10-31T09:11:48.782Z,12.79
2017-10-31T09:12:49.386Z,13.23
2017-10-31T09:13:50.004Z,13.50
2017-10-31T09:14:50.609Z,13.54
2017-10-31T09:15:51.219Z,13.82
2017-10-31T09:16:51.835Z,13.92
2017-10-31T09:17:52.444Z,13.82
2017-10-31T09:18:53.056Z,13.71
2017-10-31T09:19:53.665Z,13.49
2017-10-31T09:20:54.274Z,13.41
2017-10-31T09:21:54.895Z,13.35
2017-10-31T09:22:55.584Z,13.20
2017-10-31T09:23:56.171Z,13.02
2017-10-31T09:24:56.792Z,12.89
2017-10-31T09:25:57.409Z,12.83
2017-10-31T09:26:58.025Z,12.64
2017-10-31T09:27:58.639Z,12.77
2017-10-31T09:28:59.261Z,12.87
2017-10-31T09:29:59.882Z,12.89
2017-10-31T09:31:00.518Z,12.82
2017-10-31T09:32:01.124Z,12.79
2017-10-31T09:33:01.733Z,12.77
2017-10-31T09:34:02.340Z,12.76
2017-10-31T09:35:02.948Z,12.64
2017-10-31T09:36:03.552Z,12.58
2017-10-31T09:37:04.170Z,12.60
2017-10-31T09:38:04.776Z,12.60
2017-10-31T09:39:05.429Z,12.62
2017-10-31T09:40:06.042Z,12.47
2017-10-31T09:41:06.663Z,12.44
2017-10-31T09:42:07.265Z,12.39
2017-10-31T09:43:07.873Z,12.29
2017-10-31T09:44:08.492Z,12.22
2017-10-31T09:45:09.097Z,12.10
2017-10-31T09:46:09.716Z,12.13
2017-10-31T09:47:10.342Z,12.09
2017-10-31T09:48:10.954Z,12.01
2017-10-31T09:49:11.574Z,11.91
2017-10-31T09:50:12.197Z,11.88
2017-10-31T09:51:12.910Z,11.84
2017-10-31T09:52:13.495Z,11.87
2017-10-31T09:53:14.113Z,11.77
2017-10-31T09:54:14.718Z,11.69
2017-10-31T09:55:15.322Z,11.72
2017-10-31T09:56:15.936Z,11.87
2017-10-31T09:57:16.540Z,12.35
2017-10-31T09:58:17.158Z,13.00
2017-10-31T09:59:17.763Z,13.59
2017-10-31T10:00:18.372Z,14.21
2017-10-31T10:01:18.991Z,14.51
2017-10-31T10:02:19.599Z,14.91
2017-10-31T10:03:20.202Z,15.11
2017-10-31T10:04:20.816Z,15.47
2017-10-31T10:05:21.443Z,15.87
2017-10-31T10:06:22.053Z,16.31
2017-10-31T10:07:22.674Z,16.49
2017-10-31T10:08:23.306Z,16.75
2017-10-31T10:09:23.908Z,17.04
2017-10-31T10:10:24.528Z,16.98
2017-10-31T10:11:25.142Z,17.06
2017-10-31T10:12:25.759Z,16.86
2017-10-31T10:13:26.376Z,16.46
2017-10-31T10:14:26.994Z,16.12
2017-10-31T10:15:27.610Z,15.89
2017-10-31T10:16:28.228Z,15.68
2017-10-31T10:17:28.879Z,15.49
2017-10-31T10:18:29.497Z,15.19
2017-10-31T10:19:30.119Z,15.17
2017-10-31T10:20:30.725Z,15.26
2017-10-31T10:21:31.342Z,15.17
2017-10-31T10:22:31.961Z,15.09
2017-10-31T10:23:32.565Z,15.00
2017-10-31T10:24:33.183Z,14.86
2017-10-31T10:25:33.788Z,14.96
2017-10-31T10:26:34.392Z,14.89
2017-10-31T10:27:35.015Z,14.84
2017-10-31T10:28:35.621Z,14.88
2017-10-31T10:29:36.232Z,14.73
2017-10-31T10:30:36.850Z,14.85
2017-10-31T10:31:37.461Z,14.94
2017-10-31T10:32:38.072Z,14.88
2017-10-31T10:33:38.689Z,14.94
2017-10-31T10:34:39.300Z,14.62
2017-10-31T10:35:39.916Z,14.66
2017-10-31T10:36:40.592Z,14.50
2017-10-31T10:37:41.198Z,14.36
2017-10-31T10:38:41.811Z,14.26
2017-10-31T10:39:42.426Z,14.26
2017-10-31T10:40:43.032Z,14.14
2017-10-31T10:41:43.652Z,14.03
2017-10-31T10:42:44.272Z,13.82
2017-10-31T10:43:44.880Z,13.77
2017-10-31T10:44:45.500Z,13.72
2017-10-31T10:45:46.114Z,13.63
2017-10-31T10:46:46.719Z,13.44
2017-10-31T10:47:47.346Z,13.44
2017-10-31T10:48:47.945Z,13.35
2017-10-31T10:49:48.551Z,13.30
2017-10-31T10:50:49.164Z,13.25
2017-10-31T10:51:49.783Z,13.35
2017-10-31T10:52:50.401Z,13.33
2017-10-31T10:53:51.024Z,13.33
2017-10-31T10:54:51.640Z,13.39
2017-10-31T10:55:52.252Z,13.45
2017-10-31T10:56:52.854Z,13.44
2017-10-31T10:57:53.459Z,13.53
2017-10-31T10:58:54.069Z,13.49
2017-10-31T10:59:54.685Z,13.41
2017-10-31T11:00:55.297Z,13.46
2017-10-31T11:01:55.914Z,13.46
2017-10-31T11:02:56.543Z,13.59
2017-10-31T11:03:57.130Z,13.71
2017-10-31T11:04:57.744Z,13.89
2017-10-31T11:05:58.359Z,14.17
2017-10-31T11:06:58.962Z,14.70
2017-10-31T11:07:59.572Z,15.18
2017-10-31T11:09:00.204Z,15.46
2017-10-31T11:10:00.812Z,15.94
2017-10-31T11:11:01.429Z,15.99
2017-10-31T11:12:02.050Z,16.04
2017-10-31T11:13:02.672Z,15.95
2017-10-31T11:14:03.289Z,15.71
2017-10-31T11:15:03.907Z,15.50
2017-10-31T11:16:04.527Z,15.51
2017-10-31T11:17:05.143Z,15.42
2017-10-31T11:18:05.759Z,15.24
2017-10-31T11:19:06.383Z,15.11
2017-10-31T11:20:06.991Z,14.86
2017-10-31T11:21:07.599Z,14.86
2017-10-31T11:22:08.220Z,14.66
2017-10-31T11:23:08.834Z,14.62
2017-10-31T11:24:09.450Z,14.69
2017-10-31T11:25:10.060Z,14.62
2017-10-31T11:26:10.697Z,14.50
2017-10-31T11:27:11.297Z,14.48
2017-10-31T11:28:11.915Z,14.65
2017-10-31T11:29:12.678Z,14.58
2017-10-31T11:30:13.318Z,14.69
2017-10-31T11:31:13.935Z,14.94
2017-10-31T11:32:14.547Z,15.18
2017-10-31T11:33:15.156Z,15.51
2017-10-31T11:34:15.761Z,15.64
2017-10-31T11:35:16.376Z,15.49
2017-10-31T11:36:16.992Z,15.47
2017-10-31T11:37:17.609Z,15.44
2017-10-31T11:38:18.229Z,15.46
2017-10-31T11:39:18.852Z,15.28
2017-10-31T11:40:19.466Z,15.25
2017-10-31T11:41:20.073Z,15.19
2017-10-31T11:42:20.688Z,14.88
2017-10-31T11:43:21.312Z,14.65
2017-10-31T11:44:21.928Z,14.48
2017-10-31T11:45:22.548Z,14.40
2017-10-31T11:46:23.164Z,14.29
2017-10-31T11:47:23.777Z,14.29
2017-10-31T11:48:24.382Z,14.18
2017-10-31T11:49:25.000Z,14.23
2017-10-31T11:50:25.619Z,14.12
2017-10-31T11:51:26.237Z,14.08
2017-10-31T11:52:26.874Z,13.86
2017-10-31T11:53:27.464Z,13.79
2017-10-31T11:54:28.078Z,13.71
2017-10-31T11:55:28.692Z,13.59
2017-10-31T11:56:29.316Z,13.61
2017-10-31T11:57:29.928Z,13.41
2017-10-31T11:58:30.542Z,13.38
2017-10-31T11:59:31.159Z,13.36
2017-10-31T12:00:31.758Z,13.36
2017-10-31T12:01:32.360Z,13.35
2017-10-31T12:02:32.975Z,13.38
2017-10-31T12:03:33.587Z,13.27
2017-10-31T12:04:34.203Z,13.33
2017-10-31T12:05:34.822Z,13.33
2017-10-31T12:06:35.432Z,13.36
2017-10-31T12:07:36.035Z,13.26
2017-10-31T12:08:36.652Z,13.36
2017-10-31T12:09:37.268Z,13.36
2017-10-31T12:10:37.887Z,13.36
2017-10-31T12:11:38.503Z,13.36
2017-10-31T12:12:39.122Z,13.19
2017-10-31T12:13:39.741Z,13.16
2017-10-31T12:14:40.361Z,13.18
2017-10-31T12:15:40.974Z,13.10
2017-10-31T12:16:41.592Z,13.20
2017-10-31T12:17:42.203Z,13.12
2017-10-31T12:18:42.819Z,13.18
2017-10-31T12:19:43.437Z,13.20
2017-10-31T12:20:44.059Z,13.19
2017-10-31T12:21:44.674Z,13.20
2017-10-31T12:22:45.284Z,13.07
2017-10-31T12:23:45.896Z,13.04
2017-10-31T12:24:46.510Z,13.16
2017-10-31T12:25:47.120Z,13.10
2017-10-31T12:26:47.736Z,13.15
2017-10-31T12:27:48.351Z,13.10
2017-10-31T12:28:48.969Z,13.16
2017-10-31T12:29:49.573Z,13.07
2017-10-31T12:30:50.188Z,12.95
2017-10-31T12:31:50.797Z,12.98
2017-10-31T12:32:51.414Z,12.98
2017-10-31T12:33:52.031Z,12.95
2017-10-31T12:34:52.633Z,12.87
2017-10-31T12:35:53.248Z,12.89
2017-10-31T12:36:53.893Z,12.87
2017-10-31T12:37:54.477Z,12.79
2017-10-31T12:38:55.101Z,12.83
2017-10-31T12:39:55.720Z,12.76
2017-10-31T12:40:56.339Z,12.60
2017-10-31T12:41:56.951Z,12.62
2017-10-31T12:42:57.569Z,12.58
2017-10-31T12:43:58.179Z,12.67
2017-10-31T12:44:58.784Z,12.71
2017-10-31T12:45:59.401Z,12.60
2017-10-31T12:47:00.017Z,12.72
2017-10-31T12:48:00.635Z,12.60
2017-10-31T12:49:01.250Z,12.71
2017-10-31T12:50:01.859Z,12.64
2017-10-31T12:51:02.473Z,12.52
2017-10-31T12:52:03.087Z,12.53
2017-10-31T12:53:03.704Z,12.49
2017-10-31T12:54:04.320Z,12.47
2017-10-31T12:55:04.937Z,12.44
2017-10-31T12:56:05.539Z,12.32
2017-10-31T12:57:06.146Z,12.25
2017-10-31T12:58:06.762Z,12.34
2017-10-31T12:59:07.374Z,12.25
2017-10-31T13:00:07.985Z,12.27
2017-10-31T13:01:08.599Z,12.18
2017-10-31T13:02:09.210Z,12.22
2017-10-31T13:03:09.813Z,12.22
2017-10-31T13:04:10.412Z,12.16
2017-10-31T13:05:11.026Z,12.16
2017-10-31T13:06:11.642Z,12.13
2017-10-31T13:07:12.262Z,12.11
2017-10-31T13:08:12.872Z,12.11
2017-10-31T13:09:13.494Z,12.07
2017-10-31T13:10:14.136Z,12.01
2017-10-31T13:11:14.741Z,12.00
2017-10-31T13:12:15.375Z,12.06
2017-10-31T13:13:15.972Z,12.03
2017-10-31T13:14:16.595Z,12.04
2017-10-31T13:15:17.197Z,12.11
2017-10-31T13:16:17.812Z,12.10